Fenelton, PA (16034)

3:30 PM EST on February 25, 2017 (GMT -0500)
Western Clearfield TWP | | Change Station

Elev 1296 ft 40.86 °N, 79.78 °W | Updated 35 seconds ago

Overcast
Overcast
42.3 °F
Feels Like 37 °F
N
8.0
Wind Variable Wind from West

Today
High -- | Low -- °F
--% Chance of Precip.
Yesterday
High -- | Low -- °F
Precip. -- in
Pressure 29.67 in
Visibility 10.0 miles
Clouds Mostly Cloudy 3500 ft
Overcast 4100 ft
Windchill 37 °F
Dew Point 30 °F
Humidity 61%
Rainfall 0.64 in
Snow Depth Not available.
6:58 AM 6:05 PM
Waning Crescent, 1% visible
METAR KBTP 252015Z AUTO 25014G32KT 10SM BKN035 OVC041 06/M03 A2967 RMK AO1
Pressure 29.67 in
Visibility 10.0 miles
Clouds Mostly Cloudy 3500 ft
Overcast 4100 ft
Windchill 37 °F
Dew Point 30 °F
Humidity 61%
Rainfall 0.64 in
Snow Depth Not available.
6:58 AM 6:05 PM
Waning Crescent, 1% visible
METAR KBTP 252015Z AUTO 25014G32KT 10SM BKN035 OVC041 06/M03 A2967 RMK AO1

Get Your Daily Forecast Email!

Thanks for signing up!

Be on the lookout for a verification email in your inbox.

You'll start receiving the daily forecast at 8 AM.

×

10-Day Weather Forecast

Almanac

Astronomy

Feb. 25, 2017 Rise Set
Actual Time
Civil Twilight
Nautical Twilight
Astronomical Twilight
Moon
Length of Visible Light
Length of Day
Tomorrow will be .
, % of the Moon is Illuminated

Today's Extremes

State Highs State Lows

Community

WunderPhotos

Upload Photos

1,962,540 photos uploaded!

WunderBlog® & News

Nearby

Air Quality

  Air Quality AQ Index Pollutant
Not available.

Snow Depth

Station Depth Elevation

Earthquake Activity

City Distance Mag. Time & Date
Minimum magnitude displayed is 2.5.

Coastal Water Temperatures

Place Temperature

Stations

Nearby Weather Stations

Station Location Temp. Windchill Dew Point Humidity Wind Precip. Elev Updated Type
                   

Watches & Warnings

There are currently no watches in effect.